sensor_id;sensor_type;location;lat;lon;timestamp;P1;durP1;ratioP1;P2;durP2;ratioP2
2558;SDS011;1289;53.488;10.006;2022-12-28T00:02:13;6.20;;;5.60;;
2558;SDS011;1289;53.488;10.006;2022-12-28T00:04:40;7.20;;;5.60;;
2558;SDS011;1289;53.488;10.006;2022-12-28T00:07:06;6.17;;;5.40;;
2558;SDS011;1289;53.488;10.006;2022-12-28T00:09:34;9.83;;;5.60;;
2558;SDS011;1289;53.488;10.006;2022-12-28T00:12:01;7.77;;;4.80;;
2558;SDS011;1289;53.488;10.006;2022-12-28T00:14:27;6.50;;;5.63;;
2558;SDS011;1289;53.488;10.006;2022-12-28T00:16:54;12.30;;;5.20;;
2558;SDS011;1289;53.488;10.006;2022-12-28T00:19:20;6.27;;;4.83;;
2558;SDS011;1289;53.488;10.006;2022-12-28T00:21:47;5.80;;;5.27;;
2558;SDS011;1289;53.488;10.006;2022-12-28T00:24:16;7.10;;;4.87;;
2558;SDS011;1289;53.488;10.006;2022-12-28T00:26:45;11.47;;;5.23;;
2558;SDS011;1289;53.488;10.006;2022-12-28T00:29:12;7.87;;;4.57;;
2558;SDS011;1289;53.488;10.006;2022-12-28T00:31:39;8.40;;;4.20;;
2558;SDS011;1289;53.488;10.006;2022-12-28T00:34:05;6.03;;;4.47;;
2558;SDS011;1289;53.488;10.006;2022-12-28T00:36:32;5.10;;;3.80;;
2558;SDS011;1289;53.488;10.006;2022-12-28T00:38:59;7.13;;;5.30;;
2558;SDS011;1289;53.488;10.006;2022-12-28T00:41:25;5.90;;;4.63;;
2558;SDS011;1289;53.488;10.006;2022-12-28T00:43:53;5.07;;;4.57;;
2558;SDS011;1289;53.488;10.006;2022-12-28T00:46:20;12.30;;;4.33;;
2558;SDS011;1289;53.488;10.006;2022-12-28T00:48:48;4.60;;;4.20;;
2558;SDS011;1289;53.488;10.006;2022-12-28T00:51:16;4.20;;;3.60;;
2558;SDS011;1289;53.488;10.006;2022-12-28T00:53:44;7.23;;;4.30;;
2558;SDS011;1289;53.488;10.006;2022-12-28T00:56:11;4.03;;;3.50;;
2558;SDS011;1289;53.488;10.006;2022-12-28T00:58:39;8.83;;;4.20;;
2558;SDS011;1289;53.488;10.006;2022-12-28T01:01:09;3.67;;;3.30;;
2558;SDS011;1289;53.488;10.006;2022-12-28T01:03:38;5.40;;;4.90;;
2558;SDS011;1289;53.488;10.006;2022-12-28T01:06:04;4.80;;;4.07;;
2558;SDS011;1289;53.488;10.006;2022-12-28T01:08:31;3.80;;;3.50;;
2558;SDS011;1289;53.488;10.006;2022-12-28T01:10:58;4.40;;;4.00;;
2558;SDS011;1289;53.488;10.006;2022-12-28T01:13:25;5.50;;;5.00;;
2558;SDS011;1289;53.488;10.006;2022-12-28T01:15:51;5.83;;;4.30;;
2558;SDS011;1289;53.488;10.006;2022-12-28T01:18:19;4.00;;;3.70;;
2558;SDS011;1289;53.488;10.006;2022-12-28T01:20:47;4.23;;;3.77;;
2558;SDS011;1289;53.488;10.006;2022-12-28T01:23:14;3.77;;;3.47;;
2558;SDS011;1289;53.488;10.006;2022-12-28T01:25:41;9.23;;;3.80;;
2558;SDS011;1289;53.488;10.006;2022-12-28T01:28:07;5.33;;;4.23;;
2558;SDS011;1289;53.488;10.006;2022-12-28T01:30:34;7.30;;;3.83;;
2558;SDS011;1289;53.488;10.006;2022-12-28T01:33:01;4.20;;;3.90;;
2558;SDS011;1289;53.488;10.006;2022-12-28T01:35:29;8.50;;;6.40;;
2558;SDS011;1289;53.488;10.006;2022-12-28T01:37:56;3.67;;;3.37;;
2558;SDS011;1289;53.488;10.006;2022-12-28T01:40:24;5.30;;;3.70;;
2558;SDS011;1289;53.488;10.006;2022-12-28T01:42:50;4.23;;;3.83;;
2558;SDS011;1289;53.488;10.006;2022-12-28T01:45:18;4.80;;;4.30;;
2558;SDS011;1289;53.488;10.006;2022-12-28T01:47:47;5.63;;;3.67;;
2558;SDS011;1289;53.488;10.006;2022-12-28T01:50:15;5.90;;;3.60;;
2558;SDS011;1289;53.488;10.006;2022-12-28T01:52:45;3.47;;;3.17;;
2558;SDS011;1289;53.488;10.006;2022-12-28T01:55:14;7.97;;;3.80;;
2558;SDS011;1289;53.488;10.006;2022-12-28T01:57:43;7.73;;;3.63;;
2558;SDS011;1289;53.488;10.006;2022-12-28T02:00:13;6.30;;;3.80;;
2558;SDS011;1289;53.488;10.006;2022-12-28T02:02:45;5.40;;;3.80;;
2558;SDS011;1289;53.488;10.006;2022-12-28T02:05:14;8.77;;;4.40;;
2558;SDS011;1289;53.488;10.006;2022-12-28T02:07:45;4.10;;;3.70;;
2558;SDS011;1289;53.488;10.006;2022-12-28T02:10:16;3.80;;;3.50;;
2558;SDS011;1289;53.488;10.006;2022-12-28T02:12:43;5.93;;;5.00;;
2558;SDS011;1289;53.488;10.006;2022-12-28T02:15:10;5.60;;;3.80;;
2558;SDS011;1289;53.488;10.006;2022-12-28T02:17:37;5.60;;;3.77;;
2558;SDS011;1289;53.488;10.006;2022-12-28T02:20:04;3.87;;;3.30;;
2558;SDS011;1289;53.488;10.006;2022-12-28T02:22:38;6.33;;;4.03;;
2558;SDS011;1289;53.488;10.006;2022-12-28T02:28:53;5.20;;;4.10;;
2558;SDS011;1289;53.488;10.006;2022-12-28T02:31:41;5.90;;;4.67;;
2558;SDS011;1289;53.488;10.006;2022-12-28T02:34:12;5.30;;;3.37;;
2558;SDS011;1289;53.488;10.006;2022-12-28T02:36:42;6.10;;;3.40;;
2558;SDS011;1289;53.488;10.006;2022-12-28T02:39:13;6.97;;;4.03;;
2558;SDS011;1289;53.488;10.006;2022-12-28T02:41:40;4.03;;;3.60;;
2558;SDS011;1289;53.488;10.006;2022-12-28T02:44:09;6.10;;;3.40;;
2558;SDS011;1289;53.488;10.006;2022-12-28T02:46:36;3.73;;;3.30;;
2558;SDS011;1289;53.488;10.006;2022-12-28T02:49:21;6.97;;;3.63;;
2558;SDS011;1289;53.488;10.006;2022-12-28T02:52:07;5.63;;;4.20;;
2558;SDS011;1289;53.488;10.006;2022-12-28T02:54:43;7.10;;;4.13;;
2558;SDS011;1289;53.488;10.006;2022-12-28T02:57:39;4.60;;;4.03;;
2558;SDS011;1289;53.488;10.006;2022-12-28T03:00:15;7.37;;;6.67;;
2558;SDS011;1289;53.488;10.006;2022-12-28T03:02:48;3.93;;;3.30;;
2558;SDS011;1289;53.488;10.006;2022-12-28T03:05:21;6.73;;;4.20;;
2558;SDS011;1289;53.488;10.006;2022-12-28T03:08:14;3.80;;;3.50;;
2558;SDS011;1289;53.488;10.006;2022-12-28T03:10:51;5.00;;;3.70;;
2558;SDS011;1289;53.488;10.006;2022-12-28T03:13:25;5.20;;;3.50;;
2558;SDS011;1289;53.488;10.006;2022-12-28T03:16:18;4.63;;;3.60;;
2558;SDS011;1289;53.488;10.006;2022-12-28T03:18:48;4.00;;;3.50;;
2558;SDS011;1289;53.488;10.006;2022-12-28T03:21:33;9.67;;;4.57;;
2558;SDS011;1289;53.488;10.006;2022-12-28T03:24:18;3.80;;;3.50;;
2558;SDS011;1289;53.488;10.006;2022-12-28T03:27:04;4.03;;;3.63;;
2558;SDS011;1289;53.488;10.006;2022-12-28T03:29:55;8.50;;;3.70;;
2558;SDS011;1289;53.488;10.006;2022-12-28T03:32:44;6.07;;;3.50;;
2558;SDS011;1289;53.488;10.006;2022-12-28T03:35:11;4.73;;;4.33;;
2558;SDS011;1289;53.488;10.006;2022-12-28T03:37:42;5.10;;;3.80;;
2558;SDS011;1289;53.488;10.006;2022-12-28T03:40:16;4.57;;;3.90;;
2558;SDS011;1289;53.488;10.006;2022-12-28T03:42:48;6.43;;;3.90;;
2558;SDS011;1289;53.488;10.006;2022-12-28T03:45:34;5.00;;;4.20;;
2558;SDS011;1289;53.488;10.006;2022-12-28T03:48:05;4.77;;;4.27;;
2558;SDS011;1289;53.488;10.006;2022-12-28T03:50:33;8.03;;;3.90;;
2558;SDS011;1289;53.488;10.006;2022-12-28T03:53:00;4.80;;;4.40;;
2558;SDS011;1289;53.488;10.006;2022-12-28T03:55:28;5.20;;;4.30;;
2558;SDS011;1289;53.488;10.006;2022-12-28T03:57:56;4.40;;;4.03;;
2558;SDS011;1289;53.488;10.006;2022-12-28T04:00:26;4.80;;;4.27;;
2558;SDS011;1289;53.488;10.006;2022-12-28T04:02:53;5.17;;;3.73;;
2558;SDS011;1289;53.488;10.006;2022-12-28T04:05:21;7.83;;;3.73;;
2558;SDS011;1289;53.488;10.006;2022-12-28T04:07:48;4.67;;;4.20;;
2558;SDS011;1289;53.488;10.006;2022-12-28T04:10:15;5.80;;;4.10;;
2558;SDS011;1289;53.488;10.006;2022-12-28T04:12:42;4.17;;;3.87;;
2558;SDS011;1289;53.488;10.006;2022-12-28T04:15:27;9.80;;;4.90;;
2558;SDS011;1289;53.488;10.006;2022-12-28T04:17:54;9.10;;;4.30;;
2558;SDS011;1289;53.488;10.006;2022-12-28T04:20:23;6.90;;;4.50;;
2558;SDS011;1289;53.488;10.006;2022-12-28T04:22:50;5.03;;;3.90;;
2558;SDS011;1289;53.488;10.006;2022-12-28T04:25:16;4.57;;;4.17;;
2558;SDS011;1289;53.488;10.006;2022-12-28T04:27:43;4.33;;;4.03;;
2558;SDS011;1289;53.488;10.006;2022-12-28T04:30:30;7.63;;;3.97;;
2558;SDS011;1289;53.488;10.006;2022-12-28T04:32:57;4.00;;;3.70;;
2558;SDS011;1289;53.488;10.006;2022-12-28T04:35:25;9.17;;;3.73;;
2558;SDS011;1289;53.488;10.006;2022-12-28T04:37:52;4.73;;;4.33;;
2558;SDS011;1289;53.488;10.006;2022-12-28T04:40:19;4.30;;;3.90;;
2558;SDS011;1289;53.488;10.006;2022-12-28T04:42:46;4.07;;;3.70;;
2558;SDS011;1289;53.488;10.006;2022-12-28T04:45:13;4.63;;;4.00;;
2558;SDS011;1289;53.488;10.006;2022-12-28T04:47:39;6.90;;;4.70;;
2558;SDS011;1289;53.488;10.006;2022-12-28T04:50:06;4.90;;;4.40;;
2558;SDS011;1289;53.488;10.006;2022-12-28T04:52:34;5.47;;;4.30;;
2558;SDS011;1289;53.488;10.006;2022-12-28T04:55:01;5.40;;;4.50;;
2558;SDS011;1289;53.488;10.006;2022-12-28T04:57:28;4.60;;;4.20;;
2558;SDS011;1289;53.488;10.006;2022-12-28T04:59:54;4.87;;;4.47;;
2558;SDS011;1289;53.488;10.006;2022-12-28T05:02:21;4.60;;;4.20;;
2558;SDS011;1289;53.488;10.006;2022-12-28T05:04:47;4.47;;;4.07;;
2558;SDS011;1289;53.488;10.006;2022-12-28T05:07:14;4.70;;;4.30;;
2558;SDS011;1289;53.488;10.006;2022-12-28T05:09:42;5.23;;;4.73;;
2558;SDS011;1289;53.488;10.006;2022-12-28T05:12:08;6.03;;;5.10;;
2558;SDS011;1289;53.488;10.006;2022-12-28T05:14:35;6.33;;;4.70;;
2558;SDS011;1289;53.488;10.006;2022-12-28T05:17:02;5.97;;;4.50;;
2558;SDS011;1289;53.488;10.006;2022-12-28T05:19:28;5.23;;;4.00;;
2558;SDS011;1289;53.488;10.006;2022-12-28T05:21:55;5.03;;;4.63;;
2558;SDS011;1289;53.488;10.006;2022-12-28T05:24:21;5.40;;;4.90;;
2558;SDS011;1289;53.488;10.006;2022-12-28T05:26:49;5.90;;;4.77;;
2558;SDS011;1289;53.488;10.006;2022-12-28T05:29:16;4.97;;;4.57;;
2558;SDS011;1289;53.488;10.006;2022-12-28T05:31:42;6.20;;;5.30;;
2558;SDS011;1289;53.488;10.006;2022-12-28T05:34:09;6.10;;;5.00;;
2558;SDS011;1289;53.488;10.006;2022-12-28T05:36:36;5.10;;;4.60;;
2558;SDS011;1289;53.488;10.006;2022-12-28T05:39:04;5.10;;;4.60;;
2558;SDS011;1289;53.488;10.006;2022-12-28T05:41:30;5.10;;;4.60;;
2558;SDS011;1289;53.488;10.006;2022-12-28T05:43:58;5.40;;;4.90;;
2558;SDS011;1289;53.488;10.006;2022-12-28T05:46:28;4.90;;;4.50;;
2558;SDS011;1289;53.488;10.006;2022-12-28T05:48:56;5.37;;;4.87;;
2558;SDS011;1289;53.488;10.006;2022-12-28T05:51:24;9.50;;;5.27;;
2558;SDS011;1289;53.488;10.006;2022-12-28T05:53:51;4.40;;;4.10;;
2558;SDS011;1289;53.488;10.006;2022-12-28T05:56:19;5.30;;;4.67;;
2558;SDS011;1289;53.488;10.006;2022-12-28T05:58:50;5.77;;;5.27;;
2558;SDS011;1289;53.488;10.006;2022-12-28T06:01:20;4.97;;;4.57;;
2558;SDS011;1289;53.488;10.006;2022-12-28T06:03:50;5.67;;;4.77;;
2558;SDS011;1289;53.488;10.006;2022-12-28T06:06:19;5.47;;;4.97;;
2558;SDS011;1289;53.488;10.006;2022-12-28T06:08:46;4.90;;;4.40;;
2558;SDS011;1289;53.488;10.006;2022-12-28T06:11:14;5.27;;;4.80;;
2558;SDS011;1289;53.488;10.006;2022-12-28T06:13:42;4.83;;;4.53;;
2558;SDS011;1289;53.488;10.006;2022-12-28T06:16:10;5.37;;;4.83;;
2558;SDS011;1289;53.488;10.006;2022-12-28T06:18:39;5.47;;;5.00;;
2558;SDS011;1289;53.488;10.006;2022-12-28T06:21:06;5.47;;;5.07;;
2558;SDS011;1289;53.488;10.006;2022-12-28T06:23:35;8.43;;;5.17;;
2558;SDS011;1289;53.488;10.006;2022-12-28T06:26:02;5.23;;;4.83;;
2558;SDS011;1289;53.488;10.006;2022-12-28T06:28:30;5.27;;;4.87;;
2558;SDS011;1289;53.488;10.006;2022-12-28T06:31:00;5.37;;;4.70;;
2558;SDS011;1289;53.488;10.006;2022-12-28T06:33:28;7.00;;;5.57;;
2558;SDS011;1289;53.488;10.006;2022-12-28T06:35:56;5.40;;;5.00;;
2558;SDS011;1289;53.488;10.006;2022-12-28T06:38:23;5.40;;;4.90;;
2558;SDS011;1289;53.488;10.006;2022-12-28T06:40:51;5.53;;;5.13;;
2558;SDS011;1289;53.488;10.006;2022-12-28T06:43:17;5.60;;;5.10;;
2558;SDS011;1289;53.488;10.006;2022-12-28T06:45:52;5.20;;;4.70;;
2558;SDS011;1289;53.488;10.006;2022-12-28T06:48:19;5.87;;;5.37;;
2558;SDS011;1289;53.488;10.006;2022-12-28T06:50:52;5.30;;;4.80;;
2558;SDS011;1289;53.488;10.006;2022-12-28T06:53:21;5.33;;;4.93;;
2558;SDS011;1289;53.488;10.006;2022-12-28T06:55:51;6.87;;;6.03;;
2558;SDS011;1289;53.488;10.006;2022-12-28T06:58:18;4.60;;;4.20;;
2558;SDS011;1289;53.488;10.006;2022-12-28T07:00:45;4.40;;;4.03;;
2558;SDS011;1289;53.488;10.006;2022-12-28T07:03:12;6.80;;;5.20;;
2558;SDS011;1289;53.488;10.006;2022-12-28T07:05:38;5.00;;;4.60;;
2558;SDS011;1289;53.488;10.006;2022-12-28T07:08:05;5.50;;;5.00;;
2558;SDS011;1289;53.488;10.006;2022-12-28T07:10:34;4.63;;;4.33;;
2558;SDS011;1289;53.488;10.006;2022-12-28T07:13:01;4.90;;;4.50;;
2558;SDS011;1289;53.488;10.006;2022-12-28T07:15:28;4.97;;;4.43;;
2558;SDS011;1289;53.488;10.006;2022-12-28T07:17:54;4.83;;;3.97;;
2558;SDS011;1289;53.488;10.006;2022-12-28T07:20:21;6.60;;;5.60;;
2558;SDS011;1289;53.488;10.006;2022-12-28T07:22:47;4.63;;;4.23;;
2558;SDS011;1289;53.488;10.006;2022-12-28T07:25:14;5.73;;;4.67;;
2558;SDS011;1289;53.488;10.006;2022-12-28T07:27:43;5.30;;;4.70;;
2558;SDS011;1289;53.488;10.006;2022-12-28T07:30:10;5.10;;;4.70;;
2558;SDS011;1289;53.488;10.006;2022-12-28T07:32:37;5.27;;;4.67;;
2558;SDS011;1289;53.488;10.006;2022-12-28T07:35:05;5.00;;;4.50;;
2558;SDS011;1289;53.488;10.006;2022-12-28T07:37:32;4.80;;;4.40;;
2558;SDS011;1289;53.488;10.006;2022-12-28T07:39:59;4.97;;;4.57;;
2558;SDS011;1289;53.488;10.006;2022-12-28T07:42:27;5.27;;;4.77;;
2558;SDS011;1289;53.488;10.006;2022-12-28T07:44:55;4.60;;;4.20;;
2558;SDS011;1289;53.488;10.006;2022-12-28T07:47:22;4.60;;;4.23;;
2558;SDS011;1289;53.488;10.006;2022-12-28T07:49:48;4.60;;;4.30;;
2558;SDS011;1289;53.488;10.006;2022-12-28T07:52:15;4.70;;;4.33;;
2558;SDS011;1289;53.488;10.006;2022-12-28T07:54:41;4.33;;;4.03;;
2558;SDS011;1289;53.488;10.006;2022-12-28T07:57:08;4.57;;;4.27;;
2558;SDS011;1289;53.488;10.006;2022-12-28T07:59:35;4.87;;;4.37;;
2558;SDS011;1289;53.488;10.006;2022-12-28T08:02:02;5.00;;;4.60;;
2558;SDS011;1289;53.488;10.006;2022-12-28T08:04:29;4.40;;;4.10;;
2558;SDS011;1289;53.488;10.006;2022-12-28T08:06:56;4.97;;;4.57;;
2558;SDS011;1289;53.488;10.006;2022-12-28T08:09:22;4.57;;;4.23;;
2558;SDS011;1289;53.488;10.006;2022-12-28T08:11:49;4.70;;;4.30;;
2558;SDS011;1289;53.488;10.006;2022-12-28T08:14:15;4.87;;;4.53;;
2558;SDS011;1289;53.488;10.006;2022-12-28T08:16:42;4.20;;;3.90;;
2558;SDS011;1289;53.488;10.006;2022-12-28T08:19:11;4.93;;;4.53;;
2558;SDS011;1289;53.488;10.006;2022-12-28T08:21:38;5.40;;;4.90;;
2558;SDS011;1289;53.488;10.006;2022-12-28T08:24:05;5.03;;;4.63;;
2558;SDS011;1289;53.488;10.006;2022-12-28T08:26:33;4.57;;;4.27;;
2558;SDS011;1289;53.488;10.006;2022-12-28T08:29:01;5.13;;;4.77;;
2558;SDS011;1289;53.488;10.006;2022-12-28T08:31:29;4.60;;;4.30;;
2558;SDS011;1289;53.488;10.006;2022-12-28T08:33:58;4.60;;;4.30;;
2558;SDS011;1289;53.488;10.006;2022-12-28T08:36:28;4.80;;;4.50;;
2558;SDS011;1289;53.488;10.006;2022-12-28T08:38:55;4.37;;;4.07;;
2558;SDS011;1289;53.488;10.006;2022-12-28T08:41:23;5.60;;;5.00;;
2558;SDS011;1289;53.488;10.006;2022-12-28T08:43:50;5.60;;;5.10;;
2558;SDS011;1289;53.488;10.006;2022-12-28T08:46:18;5.50;;;5.10;;
2558;SDS011;1289;53.488;10.006;2022-12-28T08:48:46;5.30;;;4.53;;
2558;SDS011;1289;53.488;10.006;2022-12-28T08:51:15;5.30;;;4.77;;
2558;SDS011;1289;53.488;10.006;2022-12-28T08:53:44;5.53;;;5.07;;
2558;SDS011;1289;53.488;10.006;2022-12-28T08:56:11;5.63;;;5.13;;
2558;SDS011;1289;53.488;10.006;2022-12-28T08:58:39;5.37;;;4.83;;
2558;SDS011;1289;53.488;10.006;2022-12-28T09:01:07;5.73;;;5.23;;
2558;SDS011;1289;53.488;10.006;2022-12-28T09:03:35;5.80;;;5.40;;
2558;SDS011;1289;53.488;10.006;2022-12-28T09:06:02;5.50;;;5.03;;
2558;SDS011;1289;53.488;10.006;2022-12-28T09:08:29;6.83;;;6.27;;
2558;SDS011;1289;53.488;10.006;2022-12-28T09:10:59;6.73;;;6.13;;
2558;SDS011;1289;53.488;10.006;2022-12-28T09:13:26;6.90;;;6.20;;
2558;SDS011;1289;53.488;10.006;2022-12-28T09:15:56;7.73;;;6.43;;
2558;SDS011;1289;53.488;10.006;2022-12-28T09:18:23;7.40;;;6.70;;
2558;SDS011;1289;53.488;10.006;2022-12-28T09:20:49;6.97;;;6.37;;
2558;SDS011;1289;53.488;10.006;2022-12-28T09:23:16;7.80;;;7.10;;
2558;SDS011;1289;53.488;10.006;2022-12-28T09:25:43;8.97;;;7.87;;
2558;SDS011;1289;53.488;10.006;2022-12-28T09:28:10;7.53;;;6.93;;
2558;SDS011;1289;53.488;10.006;2022-12-28T09:30:37;7.70;;;7.00;;
2558;SDS011;1289;53.488;10.006;2022-12-28T09:33:04;8.20;;;7.40;;
2558;SDS011;1289;53.488;10.006;2022-12-28T09:35:48;8.20;;;7.50;;
2558;SDS011;1289;53.488;10.006;2022-12-28T09:38:15;8.30;;;7.60;;
2558;SDS011;1289;53.488;10.006;2022-12-28T09:40:42;10.70;;;7.57;;
2558;SDS011;1289;53.488;10.006;2022-12-28T09:43:09;8.17;;;7.17;;
2558;SDS011;1289;53.488;10.006;2022-12-28T09:45:38;7.50;;;6.90;;
2558;SDS011;1289;53.488;10.006;2022-12-28T09:48:07;7.27;;;6.57;;
2558;SDS011;1289;53.488;10.006;2022-12-28T09:50:37;6.63;;;6.03;;
2558;SDS011;1289;53.488;10.006;2022-12-28T09:53:06;8.37;;;7.67;;
2558;SDS011;1289;53.488;10.006;2022-12-28T09:55:47;7.40;;;6.80;;
2558;SDS011;1289;53.488;10.006;2022-12-28T09:58:20;7.13;;;6.53;;
2558;SDS011;1289;53.488;10.006;2022-12-28T10:00:47;6.67;;;6.17;;
2558;SDS011;1289;53.488;10.006;2022-12-28T10:03:16;7.80;;;7.00;;
2558;SDS011;1289;53.488;10.006;2022-12-28T10:05:44;7.00;;;6.40;;
2558;SDS011;1289;53.488;10.006;2022-12-28T10:08:12;6.63;;;6.00;;
2558;SDS011;1289;53.488;10.006;2022-12-28T10:10:41;7.80;;;7.20;;
2558;SDS011;1289;53.488;10.006;2022-12-28T10:13:12;6.77;;;6.27;;
2558;SDS011;1289;53.488;10.006;2022-12-28T10:15:44;7.37;;;6.77;;
2558;SDS011;1289;53.488;10.006;2022-12-28T10:18:11;6.80;;;6.20;;
2558;SDS011;1289;53.488;10.006;2022-12-28T10:20:39;6.40;;;5.80;;
2558;SDS011;1289;53.488;10.006;2022-12-28T10:23:05;7.40;;;6.80;;
2558;SDS011;1289;53.488;10.006;2022-12-28T10:25:32;6.37;;;5.80;;
2558;SDS011;1289;53.488;10.006;2022-12-28T10:27:59;6.30;;;5.80;;
2558;SDS011;1289;53.488;10.006;2022-12-28T10:30:26;6.00;;;5.50;;
2558;SDS011;1289;53.488;10.006;2022-12-28T10:32:55;6.97;;;6.40;;
2558;SDS011;1289;53.488;10.006;2022-12-28T10:35:23;7.00;;;6.47;;
2558;SDS011;1289;53.488;10.006;2022-12-28T10:37:51;7.27;;;6.57;;
2558;SDS011;1289;53.488;10.006;2022-12-28T10:40:23;7.40;;;6.80;;
2558;SDS011;1289;53.488;10.006;2022-12-28T10:42:52;7.43;;;6.80;;
2558;SDS011;1289;53.488;10.006;2022-12-28T10:45:20;6.67;;;6.17;;
2558;SDS011;1289;53.488;10.006;2022-12-28T10:47:49;7.97;;;7.20;;
2558;SDS011;1289;53.488;10.006;2022-12-28T10:50:37;6.93;;;6.37;;
2558;SDS011;1289;53.488;10.006;2022-12-28T10:53:14;5.77;;;5.37;;
2558;SDS011;1289;53.488;10.006;2022-12-28T10:55:45;6.33;;;5.73;;
2558;SDS011;1289;53.488;10.006;2022-12-28T10:58:16;7.10;;;6.50;;
2558;SDS011;1289;53.488;10.006;2022-12-28T11:00:51;6.40;;;5.90;;
2558;SDS011;1289;53.488;10.006;2022-12-28T11:03:20;8.00;;;6.03;;
2558;SDS011;1289;53.488;10.006;2022-12-28T11:05:51;6.23;;;5.73;;
2558;SDS011;1289;53.488;10.006;2022-12-28T11:08:33;5.90;;;5.50;;
2558;SDS011;1289;53.488;10.006;2022-12-28T11:11:00;6.57;;;6.07;;
2558;SDS011;1289;53.488;10.006;2022-12-28T11:13:27;6.93;;;6.23;;
2558;SDS011;1289;53.488;10.006;2022-12-28T11:15:53;6.50;;;6.00;;
2558;SDS011;1289;53.488;10.006;2022-12-28T11:18:20;6.03;;;5.23;;
2558;SDS011;1289;53.488;10.006;2022-12-28T11:20:47;6.53;;;6.00;;
2558;SDS011;1289;53.488;10.006;2022-12-28T11:23:17;6.00;;;5.50;;
2558;SDS011;1289;53.488;10.006;2022-12-28T11:25:45;6.20;;;5.70;;
2558;SDS011;1289;53.488;10.006;2022-12-28T11:28:12;4.93;;;4.53;;
2558;SDS011;1289;53.488;10.006;2022-12-28T11:30:41;6.07;;;5.60;;
2558;SDS011;1289;53.488;10.006;2022-12-28T11:33:20;5.10;;;4.70;;
2558;SDS011;1289;53.488;10.006;2022-12-28T11:35:51;4.90;;;4.60;;
2558;SDS011;1289;53.488;10.006;2022-12-28T11:41:05;5.07;;;4.67;;
2558;SDS011;1289;53.488;10.006;2022-12-28T11:43:39;4.70;;;4.30;;
2558;SDS011;1289;53.488;10.006;2022-12-28T12:04:07;3.93;;;3.63;;
2558;SDS011;1289;53.488;10.006;2022-12-28T12:09:39;4.73;;;4.33;;
2558;SDS011;1289;53.488;10.006;2022-12-28T12:15:01;4.37;;;4.07;;
2558;SDS011;1289;53.488;10.006;2022-12-28T12:17:31;4.10;;;3.80;;
2558;SDS011;1289;53.488;10.006;2022-12-28T12:20:02;4.03;;;3.73;;
2558;SDS011;1289;53.488;10.006;2022-12-28T12:22:33;4.60;;;4.20;;
2558;SDS011;1289;53.488;10.006;2022-12-28T12:25:02;4.20;;;3.90;;
2558;SDS011;1289;53.488;10.006;2022-12-28T12:27:32;4.60;;;4.30;;
2558;SDS011;1289;53.488;10.006;2022-12-28T12:30:02;4.70;;;4.30;;
2558;SDS011;1289;53.488;10.006;2022-12-28T12:32:32;4.57;;;4.27;;
2558;SDS011;1289;53.488;10.006;2022-12-28T12:35:03;4.77;;;4.40;;
2558;SDS011;1289;53.488;10.006;2022-12-28T12:37:35;5.10;;;4.70;;
2558;SDS011;1289;53.488;10.006;2022-12-28T12:40:23;4.43;;;4.13;;
2558;SDS011;1289;53.488;10.006;2022-12-28T12:43:19;5.10;;;4.70;;
2558;SDS011;1289;53.488;10.006;2022-12-28T12:46:01;5.30;;;4.80;;
2558;SDS011;1289;53.488;10.006;2022-12-28T12:48:39;5.50;;;4.80;;
2558;SDS011;1289;53.488;10.006;2022-12-28T12:51:17;4.73;;;4.37;;
2558;SDS011;1289;53.488;10.006;2022-12-28T12:53:54;4.30;;;4.00;;
2558;SDS011;1289;53.488;10.006;2022-12-28T12:56:28;4.50;;;4.20;;
2558;SDS011;1289;53.488;10.006;2022-12-28T12:59:08;4.80;;;4.47;;
2558;SDS011;1289;53.488;10.006;2022-12-28T13:01:56;4.60;;;4.23;;
2558;SDS011;1289;53.488;10.006;2022-12-28T13:04:28;6.40;;;4.37;;
2558;SDS011;1289;53.488;10.006;2022-12-28T13:06:57;5.20;;;4.80;;
2558;SDS011;1289;53.488;10.006;2022-12-28T13:09:26;5.20;;;4.73;;
2558;SDS011;1289;53.488;10.006;2022-12-28T13:11:54;5.60;;;5.10;;
2558;SDS011;1289;53.488;10.006;2022-12-28T13:14:22;5.60;;;5.10;;
2558;SDS011;1289;53.488;10.006;2022-12-28T13:16:50;5.40;;;5.00;;
2558;SDS011;1289;53.488;10.006;2022-12-28T13:19:18;6.20;;;5.70;;
2558;SDS011;1289;53.488;10.006;2022-12-28T13:21:47;5.77;;;5.27;;
2558;SDS011;1289;53.488;10.006;2022-12-28T13:24:17;5.73;;;5.33;;
2558;SDS011;1289;53.488;10.006;2022-12-28T13:26:45;5.57;;;5.07;;
2558;SDS011;1289;53.488;10.006;2022-12-28T13:29:12;5.70;;;5.20;;
2558;SDS011;1289;53.488;10.006;2022-12-28T13:31:43;8.23;;;6.00;;
2558;SDS011;1289;53.488;10.006;2022-12-28T13:34:15;6.33;;;5.83;;
2558;SDS011;1289;53.488;10.006;2022-12-28T13:36:46;6.00;;;5.50;;
2558;SDS011;1289;53.488;10.006;2022-12-28T13:39:13;5.97;;;5.47;;
2558;SDS011;1289;53.488;10.006;2022-12-28T13:41:43;5.50;;;5.10;;
2558;SDS011;1289;53.488;10.006;2022-12-28T13:44:25;6.03;;;5.53;;
2558;SDS011;1289;53.488;10.006;2022-12-28T13:47:03;7.23;;;6.60;;
2558;SDS011;1289;53.488;10.006;2022-12-28T13:49:34;5.40;;;5.00;;
2558;SDS011;1289;53.488;10.006;2022-12-28T13:52:05;6.83;;;5.60;;
2558;SDS011;1289;53.488;10.006;2022-12-28T13:54:33;5.60;;;5.10;;
2558;SDS011;1289;53.488;10.006;2022-12-28T13:57:00;5.70;;;5.20;;
2558;SDS011;1289;53.488;10.006;2022-12-28T13:59:26;6.60;;;6.10;;
2558;SDS011;1289;53.488;10.006;2022-12-28T14:01:53;6.53;;;5.80;;
2558;SDS011;1289;53.488;10.006;2022-12-28T14:04:22;6.40;;;5.80;;
2558;SDS011;1289;53.488;10.006;2022-12-28T14:06:51;6.47;;;5.87;;
2558;SDS011;1289;53.488;10.006;2022-12-28T14:09:18;6.20;;;5.70;;
2558;SDS011;1289;53.488;10.006;2022-12-28T14:11:45;6.90;;;6.30;;
2558;SDS011;1289;53.488;10.006;2022-12-28T14:14:12;6.23;;;5.73;;
2558;SDS011;1289;53.488;10.006;2022-12-28T14:16:39;6.93;;;6.33;;
2558;SDS011;1289;53.488;10.006;2022-12-28T14:19:06;6.53;;;5.93;;
2558;SDS011;1289;53.488;10.006;2022-12-28T14:21:37;6.40;;;5.43;;
2558;SDS011;1289;53.488;10.006;2022-12-28T14:24:06;5.67;;;5.27;;
2558;SDS011;1289;53.488;10.006;2022-12-28T14:26:34;6.10;;;5.60;;
2558;SDS011;1289;53.488;10.006;2022-12-28T14:29:02;6.20;;;5.50;;
2558;SDS011;1289;53.488;10.006;2022-12-28T14:31:34;5.20;;;4.80;;
2558;SDS011;1289;53.488;10.006;2022-12-28T14:34:02;5.00;;;4.60;;
2558;SDS011;1289;53.488;10.006;2022-12-28T14:36:30;5.00;;;4.60;;
2558;SDS011;1289;53.488;10.006;2022-12-28T14:38:59;4.77;;;4.47;;
2558;SDS011;1289;53.488;10.006;2022-12-28T14:41:28;4.73;;;4.33;;
2558;SDS011;1289;53.488;10.006;2022-12-28T14:43:58;8.17;;;4.90;;
2558;SDS011;1289;53.488;10.006;2022-12-28T14:46:30;4.90;;;4.50;;
2558;SDS011;1289;53.488;10.006;2022-12-28T14:48:58;5.37;;;4.83;;
2558;SDS011;1289;53.488;10.006;2022-12-28T14:51:27;4.40;;;4.10;;
2558;SDS011;1289;53.488;10.006;2022-12-28T14:54:18;4.67;;;4.27;;
2558;SDS011;1289;53.488;10.006;2022-12-28T14:56:47;4.83;;;4.43;;
2558;SDS011;1289;53.488;10.006;2022-12-28T14:59:17;4.90;;;4.50;;
2558;SDS011;1289;53.488;10.006;2022-12-28T15:01:47;5.17;;;4.67;;
2558;SDS011;1289;53.488;10.006;2022-12-28T15:04:25;5.90;;;4.40;;
2558;SDS011;1289;53.488;10.006;2022-12-28T15:06:53;5.00;;;4.60;;
2558;SDS011;1289;53.488;10.006;2022-12-28T15:09:21;5.03;;;4.63;;
2558;SDS011;1289;53.488;10.006;2022-12-28T15:11:47;4.90;;;4.50;;
2558;SDS011;1289;53.488;10.006;2022-12-28T15:14:14;6.60;;;5.90;;
2558;SDS011;1289;53.488;10.006;2022-12-28T15:16:41;4.90;;;4.50;;
2558;SDS011;1289;53.488;10.006;2022-12-28T15:19:07;5.60;;;5.20;;
2558;SDS011;1289;53.488;10.006;2022-12-28T15:21:34;5.10;;;4.70;;
2558;SDS011;1289;53.488;10.006;2022-12-28T15:24:00;5.50;;;5.00;;
2558;SDS011;1289;53.488;10.006;2022-12-28T15:26:28;5.57;;;5.07;;
2558;SDS011;1289;53.488;10.006;2022-12-28T15:28:55;5.40;;;4.90;;
2558;SDS011;1289;53.488;10.006;2022-12-28T15:31:22;5.10;;;4.70;;
2558;SDS011;1289;53.488;10.006;2022-12-28T15:33:48;5.20;;;4.80;;
2558;SDS011;1289;53.488;10.006;2022-12-28T15:36:15;5.50;;;5.03;;
2558;SDS011;1289;53.488;10.006;2022-12-28T15:38:43;5.10;;;4.60;;
2558;SDS011;1289;53.488;10.006;2022-12-28T15:41:10;5.70;;;5.20;;
2558;SDS011;1289;53.488;10.006;2022-12-28T15:43:52;7.40;;;5.10;;
2558;SDS011;1289;53.488;10.006;2022-12-28T15:46:18;4.77;;;4.37;;